DHLLM EDXH-EDXW
Flight info
| Callsign | DHLLM |
|---|---|
| Flight time | 0h 22m |
| Altitude | |
| Route | |
| Aircraft | EC135 |
Departure
| Time | 2026-04-20 18:14 |
|---|---|
| Airport | Helgoland-Düne Airport (EDXH) |
Arrival
| Time | 2026-04-20 18:36 |
|---|---|
| Airport | Westerland Sylt Airport (EDXW) |
| Time | Latitude | Longitude | Altitude | Speed | Heading |
|---|---|---|---|---|---|
| 2026-04-20 18:10 | 54.18673 | 7.91489 | 6 ft | 0 kts | 144° |
| 2026-04-20 18:11 | 54.18672 | 7.91490 | 9 ft | 1 kts | 147° |
| 2026-04-20 18:11 | 54.18644 | 7.91512 | 17 ft | 6 kts | 148° |
| 2026-04-20 18:11 | 54.18633 | 7.91574 | 26 ft | 11 kts | 24° |
| 2026-04-20 18:12 | 54.18823 | 7.91734 | 135 ft | 52 kts | 15° |
| 2026-04-20 18:12 | 54.19252 | 7.92074 | 311 ft | 82 kts | 25° |
| 2026-04-20 18:12 | 54.19819 | 7.92474 | 463 ft | 94 kts | 21° |
| 2026-04-20 18:12 | 54.20460 | 7.92940 | 531 ft | 106 kts | 20° |
| 2026-04-20 18:13 | 54.21177 | 7.93400 | 539 ft | 116 kts | 18° |
| 2026-04-20 18:13 | 54.21963 | 7.93903 | 506 ft | 125 kts | 18° |
| 2026-04-20 18:13 | 54.22795 | 7.94426 | 459 ft | 129 kts | 17° |
| 2026-04-20 18:13 | 54.23643 | 7.94939 | 470 ft | 129 kts | 17° |
| 2026-04-20 18:14 | 54.24484 | 7.95449 | 496 ft | 127 kts | 18° |
| 2026-04-20 18:14 | 54.25302 | 7.95947 | 568 ft | 123 kts | 19° |
| 2026-04-20 18:14 | 54.26096 | 7.96437 | 656 ft | 120 kts | 19° |
| 2026-04-20 18:14 | 54.26870 | 7.96926 | 754 ft | 117 kts | 19° |
| 2026-04-20 18:15 | 54.27626 | 7.97417 | 852 ft | 115 kts | 20° |
| 2026-04-20 18:15 | 54.28368 | 7.97916 | 978 ft | 114 kts | 21° |
| 2026-04-20 18:15 | 54.29107 | 7.98431 | 1046 ft | 116 kts | 21° |
| 2026-04-20 18:15 | 54.29858 | 7.98962 | 1076 ft | 118 kts | 21° |
| 2026-04-20 18:16 | 54.30620 | 7.99505 | 1094 ft | 119 kts | 21° |
| 2026-04-20 18:16 | 54.31390 | 8.00054 | 1103 ft | 121 kts | 21° |
| 2026-04-20 18:16 | 54.32167 | 8.00606 | 1114 ft | 121 kts | 21° |
| 2026-04-20 18:16 | 54.32950 | 8.01161 | 1118 ft | 122 kts | 21° |
| 2026-04-20 18:17 | 54.33737 | 8.01714 | 1120 ft | 123 kts | 21° |
| 2026-04-20 18:17 | 54.34528 | 8.02266 | 1123 ft | 123 kts | 21° |
| 2026-04-20 18:17 | 54.35323 | 8.02816 | 1131 ft | 123 kts | 21° |
| 2026-04-20 18:17 | 54.36119 | 8.03359 | 1114 ft | 123 kts | 20° |
| 2026-04-20 18:18 | 54.36914 | 8.03890 | 1100 ft | 122 kts | 20° |
| 2026-04-20 18:18 | 54.37709 | 8.04409 | 1085 ft | 122 kts | 20° |
| 2026-04-20 18:18 | 54.38506 | 8.04918 | 1075 ft | 122 kts | 19° |
| 2026-04-20 18:18 | 54.39302 | 8.05415 | 1063 ft | 122 kts | 19° |
| 2026-04-20 18:19 | 54.40099 | 8.05904 | 1053 ft | 122 kts | 18° |
| 2026-04-20 18:19 | 54.40897 | 8.06382 | 1043 ft | 122 kts | 18° |
| 2026-04-20 18:19 | 54.41697 | 8.06853 | 1034 ft | 121 kts | 18° |
| 2026-04-20 18:19 | 54.42497 | 8.07314 | 1027 ft | 121 kts | 17° |
| 2026-04-20 18:20 | 54.43299 | 8.07766 | 1021 ft | 121 kts | 17° |
| 2026-04-20 18:20 | 54.44100 | 8.08209 | 1014 ft | 121 kts | 17° |
| 2026-04-20 18:20 | 54.44905 | 8.08645 | 1008 ft | 121 kts | 16° |
| 2026-04-20 18:20 | 54.45710 | 8.09072 | 1003 ft | 121 kts | 16° |
| 2026-04-20 18:21 | 54.46516 | 8.09492 | 998 ft | 121 kts | 16° |
| 2026-04-20 18:21 | 54.47324 | 8.09903 | 990 ft | 121 kts | 15° |
| 2026-04-20 18:21 | 54.48133 | 8.10307 | 982 ft | 121 kts | 15° |
| 2026-04-20 18:21 | 54.48942 | 8.10702 | 980 ft | 121 kts | 14° |
| 2026-04-20 18:22 | 54.49741 | 8.11085 | 967 ft | 121 kts | 14° |
| 2026-04-20 18:22 | 54.50553 | 8.11465 | 960 ft | 121 kts | 14° |
| 2026-04-20 18:22 | 54.51367 | 8.11838 | 956 ft | 121 kts | 14° |
| 2026-04-20 18:22 | 54.52168 | 8.12276 | 952 ft | 121 kts | 19° |
| 2026-04-20 18:23 | 54.52959 | 8.12768 | 951 ft | 121 kts | 19° |
| 2026-04-20 18:23 | 54.53750 | 8.13261 | 955 ft | 121 kts | 19° |
| 2026-04-20 18:23 | 54.54540 | 8.13756 | 957 ft | 121 kts | 19° |
| 2026-04-20 18:23 | 54.55329 | 8.14252 | 958 ft | 121 kts | 19° |
| 2026-04-20 18:24 | 54.56117 | 8.14751 | 959 ft | 121 kts | 19° |
| 2026-04-20 18:24 | 54.56904 | 8.15251 | 958 ft | 121 kts | 19° |
| 2026-04-20 18:24 | 54.57687 | 8.15797 | 953 ft | 122 kts | 22° |
| 2026-04-20 18:24 | 54.58465 | 8.16418 | 911 ft | 125 kts | 25° |
| 2026-04-20 18:25 | 54.59297 | 8.17112 | 665 ft | 138 kts | 24° |
| 2026-04-20 18:25 | 54.60159 | 8.17838 | 517 ft | 139 kts | 25° |
| 2026-04-20 18:25 | 54.61028 | 8.18579 | 369 ft | 138 kts | 24° |
| 2026-04-20 18:25 | 54.61885 | 8.19294 | 282 ft | 135 kts | 24° |
| 2026-04-20 18:26 | 54.62737 | 8.19924 | 212 ft | 132 kts | 19° |
| 2026-04-20 18:26 | 54.63571 | 8.20459 | 299 ft | 123 kts | 20° |
| 2026-04-20 18:26 | 54.64323 | 8.20994 | 516 ft | 114 kts | 30° |
| 2026-04-20 18:26 | 54.65020 | 8.21528 | 671 ft | 106 kts | 31° |
| 2026-04-20 18:27 | 54.65693 | 8.21944 | 861 ft | 101 kts | 25° |
| 2026-04-20 18:27 | 54.66363 | 8.22170 | 1098 ft | 94 kts | 20° |
| 2026-04-20 18:27 | 54.66998 | 8.22352 | 1116 ft | 91 kts | 21° |
| 2026-04-20 18:27 | 54.67636 | 8.22542 | 1131 ft | 97 kts | 21° |
| 2026-04-20 18:28 | 54.68094 | 8.22706 | 1141 ft | 102 kts | 21° |
| 2026-04-20 18:28 | 54.68806 | 8.22996 | 1148 ft | 108 kts | 22° |
| 2026-04-20 18:28 | 54.69546 | 8.23331 | 1137 ft | 112 kts | 24° |
| 2026-04-20 18:28 | 54.70306 | 8.23696 | 1132 ft | 114 kts | 23° |
| 2026-04-20 18:29 | 54.71072 | 8.24088 | 1129 ft | 115 kts | 24° |
| 2026-04-20 18:29 | 54.71837 | 8.24505 | 1096 ft | 115 kts | 26° |
| 2026-04-20 18:29 | 54.72600 | 8.24945 | 1085 ft | 115 kts | 27° |
| 2026-04-20 18:29 | 54.73388 | 8.25231 | 1118 ft | 117 kts | 11° |
| 2026-04-20 18:30 | 54.74194 | 8.25289 | 1149 ft | 118 kts | 7° |
| 2026-04-20 18:30 | 54.75023 | 8.25294 | 1163 ft | 120 kts | 6° |
| 2026-04-20 18:30 | 54.75856 | 8.25264 | 1167 ft | 120 kts | 6° |
| 2026-04-20 18:30 | 54.76692 | 8.25228 | 1168 ft | 120 kts | 5° |
| 2026-04-20 18:31 | 54.77533 | 8.25196 | 1174 ft | 121 kts | 7° |
| 2026-04-20 18:31 | 54.78378 | 8.25186 | 1195 ft | 122 kts | 7° |
| 2026-04-20 18:31 | 54.79229 | 8.25197 | 1198 ft | 123 kts | 7° |
| 2026-04-20 18:31 | 54.80093 | 8.25230 | 1182 ft | 123 kts | 8° |
| 2026-04-20 18:32 | 54.80949 | 8.25295 | 1153 ft | 122 kts | 9° |
| 2026-04-20 18:32 | 54.81777 | 8.25391 | 1103 ft | 120 kts | 11° |
| 2026-04-20 18:32 | 54.82605 | 8.25496 | 1060 ft | 119 kts | 11° |
| 2026-04-20 18:32 | 54.83424 | 8.25598 | 1005 ft | 117 kts | 11° |
| 2026-04-20 18:33 | 54.84231 | 8.25693 | 974 ft | 116 kts | 11° |
| 2026-04-20 18:33 | 54.85035 | 8.25791 | 924 ft | 115 kts | 12° |
| 2026-04-20 18:33 | 54.85825 | 8.25874 | 814 ft | 112 kts | 12° |
| 2026-04-20 18:33 | 54.86600 | 8.25952 | 719 ft | 111 kts | 13° |
| 2026-04-20 18:34 | 54.87362 | 8.26036 | 649 ft | 109 kts | 9° |
| 2026-04-20 18:34 | 54.88107 | 8.26208 | 690 ft | 106 kts | 17° |
| 2026-04-20 18:34 | 54.88816 | 8.26404 | 625 ft | 99 kts | 22° |
| 2026-04-20 18:34 | 54.89410 | 8.26890 | 480 ft | 92 kts | 43° |
| 2026-04-20 18:35 | 54.89830 | 8.27700 | 415 ft | 91 kts | 60° |
| 2026-04-20 18:35 | 54.90149 | 8.28637 | 338 ft | 86 kts | 64° |
| 2026-04-20 18:35 | 54.90432 | 8.29486 | 362 ft | 77 kts | 63° |
| 2026-04-20 18:35 | 54.90675 | 8.30269 | 348 ft | 71 kts | 67° |
| 2026-04-20 18:36 | 54.90881 | 8.31004 | 336 ft | 63 kts | 66° |
| 2026-04-20 18:36 | 54.91056 | 8.31616 | 259 ft | 51 kts | 73° |
| 2026-04-20 18:36 | 54.91139 | 8.32169 | 177 ft | 39 kts | 77° |
| 2026-04-20 18:36 | 54.91190 | 8.32534 | 141 ft | 25 kts | 81° |
| 2026-04-20 18:37 | 54.91204 | 8.32745 | 93 ft | 13 kts | 83° |
| 2026-04-20 18:37 | 54.91218 | 8.32854 | 59 ft | 3 kts | 76° |
| 2026-04-20 18:37 | 54.91226 | 8.32883 | 54 ft | 6 kts | 36° |
| 2026-04-20 18:37 | 54.91278 | 8.32859 | 51 ft | 6 kts | 347° |
| 2026-04-20 18:38 | 54.91323 | 8.32891 | 43 ft | 2 kts | 357° |
| 2026-04-20 18:38 | 54.91329 | 8.32894 | 27 ft | 0 kts | 357° |